Time;durP1;ratioP1;P1;durP2;ratioP2;P2;SDS_P1;SDS_P2;PMS_P1;PMS_P2;Temp;Humidity;BMP_temperature;BMP_pressure;BME280_temperature;BME280_humidity;BME280_pressure;Samples;Min_cycle;Max_cycle;Signal;HPM_P1;HPM_P2
2022/01/29 00:01:18;;;;;;;16.97;10.00;;;;;;;;;;5085965;28;20187;-58
2022/01/29 00:03:44;;;;;;;14.83;10.10;;;;;;;;;;5076124;28;20191;-58
2022/01/29 00:06:11;;;;;;;16.83;10.60;;;;;;;;;;5090674;28;20266;-59
2022/01/29 00:08:37;;;;;;;15.93;11.87;;;;;;;;;;5071309;28;20550;-59
2022/01/29 00:11:10;;;;;;;16.20;10.27;;;;;;;;;;5089151;28;20237;-58
2022/01/29 00:13:39;;;;;;;13.10;9.63;;;;;;;;;;5089425;28;20209;-59
2022/01/29 00:16:06;;;;;;;17.27;11.17;;;;;;;;;;5077347;28;20180;-59
2022/01/29 00:18:32;;;;;;;15.40;10.97;;;;;;;;;;5082359;28;20657;-59
2022/01/29 00:21:02;;;;;;;14.10;9.77;;;;;;;;;;5075374;28;20262;-58
2022/01/29 00:23:31;;;;;;;16.67;11.07;;;;;;;;;;5089013;28;20183;-59
2022/01/29 00:25:59;;;;;;;14.33;11.23;;;;;;;;;;5070604;28;20211;-58
2022/01/29 00:28:27;;;;;;;18.23;10.87;;;;;;;;;;5089196;28;20558;-59
2022/01/29 00:30:57;;;;;;;18.40;12.53;;;;;;;;;;5088999;28;20168;-58
2022/01/29 00:33:23;;;;;;;14.17;10.70;;;;;;;;;;5069026;28;20183;-59
2022/01/29 00:35:49;;;;;;;17.97;12.07;;;;;;;;;;5089315;28;20192;-59
2022/01/29 00:38:18;;;;;;;17.00;11.83;;;;;;;;;;5070077;28;20184;-58
2022/01/29 00:40:46;;;;;;;18.83;11.80;;;;;;;;;;5089097;28;20266;-59
2022/01/29 00:43:12;;;;;;;20.40;12.17;;;;;;;;;;5074061;28;20546;-58
2022/01/29 00:45:38;;;;;;;17.27;12.77;;;;;;;;;;5069893;28;20282;-59
2022/01/29 00:48:07;;;;;;;20.00;12.17;;;;;;;;;;5087634;28;20168;-59
2022/01/29 00:50:33;;;;;;;16.23;12.80;;;;;;;;;;5070475;28;20184;-58
2022/01/29 00:53:00;;;;;;;16.27;11.73;;;;;;;;;;5070045;28;21272;-58
2022/01/29 00:55:26;;;;;;;19.53;12.00;;;;;;;;;;5069960;28;20223;-58
2022/01/29 00:57:56;;;;;;;17.30;12.47;;;;;;;;;;5069924;28;20235;-58
2022/01/29 01:00:25;;;;;;;17.53;12.97;;;;;;;;;;5067743;28;20306;-58
2022/01/29 01:02:51;;;;;;;20.70;12.90;;;;;;;;;;5068852;28;20195;-59
2022/01/29 01:05:17;;;;;;;16.60;11.53;;;;;;;;;;5070042;28;20188;-59
2022/01/29 01:07:46;;;;;;;19.10;12.47;;;;;;;;;;5087686;28;20211;-59
2022/01/29 01:10:13;;;;;;;18.83;12.70;;;;;;;;;;5069739;28;20183;-58
2022/01/29 01:12:39;;;;;;;18.20;12.50;;;;;;;;;;5088634;28;20186;-58
2022/01/29 01:15:06;;;;;;;17.80;12.03;;;;;;;;;;5088418;28;20190;-59
2022/01/29 01:17:32;;;;;;;22.90;13.77;;;;;;;;;;5088020;28;20542;-59
2022/01/29 01:19:59;;;;;;;20.77;12.40;;;;;;;;;;5087987;28;20561;-58
2022/01/29 01:22:25;;;;;;;21.13;13.90;;;;;;;;;;5063624;28;20545;-59
2022/01/29 01:24:51;;;;;;;24.73;13.70;;;;;;;;;;5086309;28;20225;-58
2022/01/29 01:27:21;;;;;;;16.10;12.40;;;;;;;;;;5068950;28;20224;-58
2022/01/29 01:29:47;;;;;;;19.40;13.97;;;;;;;;;;5048467;28;20651;-58
2022/01/29 01:32:14;;;;;;;20.63;12.97;;;;;;;;;;5068185;28;20596;-58
2022/01/29 01:34:49;;;;;;;22.97;13.50;;;;;;;;;;5067768;28;20188;-59
2022/01/29 01:37:34;;;;;;;20.13;12.87;;;;;;;;;;5087448;28;20597;-58
2022/01/29 01:40:10;;;;;;;20.07;12.33;;;;;;;;;;5069208;28;20179;-60
2022/01/29 01:42:40;;;;;;;21.17;13.07;;;;;;;;;;5069045;28;20202;-58
2022/01/29 01:45:09;;;;;;;22.10;14.13;;;;;;;;;;5069370;28;20270;-58
2022/01/29 01:47:38;;;;;;;18.83;13.40;;;;;;;;;;5072778;28;20203;-58
2022/01/29 01:50:06;;;;;;;20.53;14.30;;;;;;;;;;5050711;28;20523;-58
2022/01/29 01:52:32;;;;;;;19.10;12.93;;;;;;;;;;5068041;28;20337;-59
2022/01/29 01:54:59;;;;;;;20.77;13.40;;;;;;;;;;5069379;28;20187;-58
2022/01/29 01:57:25;;;;;;;20.10;13.20;;;;;;;;;;5067617;28;20203;-58
2022/01/29 01:59:51;;;;;;;19.27;13.67;;;;;;;;;;5068491;28;20219;-58
2022/01/29 02:02:17;;;;;;;19.80;12.73;;;;;;;;;;5065470;28;20186;-58
2022/01/29 02:04:43;;;;;;;19.50;13.20;;;;;;;;;;5085474;28;20233;-58
2022/01/29 02:07:12;;;;;;;19.83;12.27;;;;;;;;;;5069299;28;20196;-58
2022/01/29 02:09:39;;;;;;;19.27;13.30;;;;;;;;;;5086454;28;20665;-59
2022/01/29 02:12:08;;;;;;;26.57;13.43;;;;;;;;;;5068919;28;20664;-58
2022/01/29 02:14:39;;;;;;;18.70;13.43;;;;;;;;;;5049873;28;20554;-58
2022/01/29 02:17:09;;;;;;;20.10;13.93;;;;;;;;;;5068540;28;20539;-58
2022/01/29 02:19:35;;;;;;;22.70;13.23;;;;;;;;;;5068427;28;20360;-58
2022/01/29 02:22:02;;;;;;;19.23;13.47;;;;;;;;;;5068131;28;20221;-58
2022/01/29 02:24:28;;;;;;;18.53;13.30;;;;;;;;;;5068840;28;20184;-59
2022/01/29 02:26:54;;;;;;;21.97;13.90;;;;;;;;;;5086874;28;20733;-58
2022/01/29 02:29:21;;;;;;;21.53;14.53;;;;;;;;;;5086692;28;20172;-58
2022/01/29 02:31:55;;;;;;;17.03;12.77;;;;;;;;;;5068446;28;20217;-59
2022/01/29 02:34:22;;;;;;;23.00;13.90;;;;;;;;;;5066895;28;20850;-58
2022/01/29 02:36:49;;;;;;;20.77;13.57;;;;;;;;;;5068030;28;20499;-58
2022/01/29 02:39:19;;;;;;;18.83;14.07;;;;;;;;;;5068394;28;20569;-58
2022/01/29 02:41:46;;;;;;;21.90;14.07;;;;;;;;;;5087144;28;20179;-58
2022/01/29 02:44:19;;;;;;;17.63;13.37;;;;;;;;;;5068113;28;20176;-58
2022/01/29 02:46:51;;;;;;;18.37;13.50;;;;;;;;;;5066493;28;20227;-58
2022/01/29 02:49:19;;;;;;;20.07;14.53;;;;;;;;;;5080826;28;20169;-58
2022/01/29 02:52:03;;;;;;;20.50;13.50;;;;;;;;;;5070848;28;20187;-57
2022/01/29 02:54:30;;;;;;;18.87;13.40;;;;;;;;;;5070224;28;20714;-59
2022/01/29 02:56:58;;;;;;;21.77;14.33;;;;;;;;;;5090470;28;20283;-59
2022/01/29 02:59:24;;;;;;;22.53;13.73;;;;;;;;;;5071698;28;20269;-58
2022/01/29 03:01:51;;;;;;;20.03;14.57;;;;;;;;;;5083155;28;20225;-58
2022/01/29 03:04:17;;;;;;;23.57;15.10;;;;;;;;;;5089139;28;20207;-58
2022/01/29 03:06:46;;;;;;;19.57;14.43;;;;;;;;;;5065861;28;20203;-59
2022/01/29 03:09:13;;;;;;;22.00;14.13;;;;;;;;;;5088639;28;20249;-59
2022/01/29 03:11:39;;;;;;;20.17;13.73;;;;;;;;;;5087287;28;20259;-58
2022/01/29 03:14:05;;;;;;;19.87;13.87;;;;;;;;;;5089756;28;20236;-58
2022/01/29 03:16:32;;;;;;;19.50;14.07;;;;;;;;;;5071687;28;20188;-58
2022/01/29 03:18:58;;;;;;;22.33;15.20;;;;;;;;;;5070736;28;20176;-58
2022/01/29 03:21:24;;;;;;;19.87;13.03;;;;;;;;;;5072489;28;20183;-59
2022/01/29 03:23:51;;;;;;;21.53;14.07;;;;;;;;;;5071700;28;20526;-58
2022/01/29 03:26:17;;;;;;;18.97;13.53;;;;;;;;;;5091523;28;20579;-59
2022/01/29 03:28:46;;;;;;;18.47;13.40;;;;;;;;;;5071783;28;20596;-58
2022/01/29 03:31:15;;;;;;;17.80;13.47;;;;;;;;;;5089858;28;20586;-59
2022/01/29 03:33:42;;;;;;;18.77;13.13;;;;;;;;;;5088516;28;20172;-58
2022/01/29 03:36:08;;;;;;;20.23;13.93;;;;;;;;;;5074172;28;20167;-59
2022/01/29 03:38:36;;;;;;;19.67;13.80;;;;;;;;;;5070876;28;20248;-58
2022/01/29 03:41:02;;;;;;;20.50;13.47;;;;;;;;;;5080130;28;20185;-59
2022/01/29 03:43:35;;;;;;;18.37;12.33;;;;;;;;;;5077004;28;20182;-59
2022/01/29 03:46:01;;;;;;;16.57;11.80;;;;;;;;;;5070635;28;20738;-58
2022/01/29 03:48:27;;;;;;;17.93;12.73;;;;;;;;;;5070810;28;20168;-58
2022/01/29 03:50:54;;;;;;;18.20;12.37;;;;;;;;;;5088858;28;20200;-57
2022/01/29 03:53:20;;;;;;;17.97;13.10;;;;;;;;;;5070739;28;20172;-59
2022/01/29 03:55:46;;;;;;;18.27;12.90;;;;;;;;;;5070015;28;20775;-59
2022/01/29 03:58:12;;;;;;;16.70;11.97;;;;;;;;;;5086469;28;20172;-59
2022/01/29 04:00:38;;;;;;;21.93;12.53;;;;;;;;;;5089314;28;20600;-59
2022/01/29 04:03:10;;;;;;;17.53;12.73;;;;;;;;;;5094994;28;20302;-59
2022/01/29 04:05:36;;;;;;;18.53;12.40;;;;;;;;;;5071478;28;20520;-58
2022/01/29 04:08:15;;;;;;;18.50;12.37;;;;;;;;;;5089394;28;20203;-59
2022/01/29 04:10:47;;;;;;;18.23;12.37;;;;;;;;;;5093837;28;20175;-59
2022/01/29 04:13:14;;;;;;;17.23;11.93;;;;;;;;;;5104870;28;20365;-59
2022/01/29 04:15:40;;;;;;;18.13;12.53;;;;;;;;;;5071175;28;20176;-59
2022/01/29 04:18:10;;;;;;;18.13;12.17;;;;;;;;;;5069930;28;20217;-59
2022/01/29 04:20:36;;;;;;;19.73;12.37;;;;;;;;;;5070332;28;20180;-58
2022/01/29 04:23:02;;;;;;;17.53;11.97;;;;;;;;;;5069866;28;20681;-58
2022/01/29 04:25:29;;;;;;;19.83;11.77;;;;;;;;;;5070070;28;20183;-58
2022/01/29 04:27:55;;;;;;;17.57;12.53;;;;;;;;;;5070099;28;20775;-59
2022/01/29 04:30:30;;;;;;;16.43;11.73;;;;;;;;;;5069156;28;20195;-58
2022/01/29 04:33:01;;;;;;;16.20;11.70;;;;;;;;;;5069191;28;20240;-58
2022/01/29 04:35:33;;;;;;;18.03;12.53;;;;;;;;;;5088116;28;20794;-58
2022/01/29 04:38:08;;;;;;;17.47;12.57;;;;;;;;;;5088345;28;20171;-58
2022/01/29 04:40:35;;;;;;;14.10;9.90;;;;;;;;;;5071883;28;20171;-58
2022/01/29 04:43:02;;;;;;;13.70;10.80;;;;;;;;;;5070426;28;20654;-58
2022/01/29 04:45:28;;;;;;;13.87;10.67;;;;;;;;;;5069651;28;20696;-59
2022/01/29 04:47:54;;;;;;;16.00;11.00;;;;;;;;;;5069983;28;20210;-58
2022/01/29 04:50:27;;;;;;;18.67;11.47;;;;;;;;;;5088350;28;20172;-59
2022/01/29 04:52:56;;;;;;;16.37;11.77;;;;;;;;;;5087390;28;20179;-58
2022/01/29 04:55:23;;;;;;;16.53;11.13;;;;;;;;;;5071721;28;20184;-59
2022/01/29 04:57:49;;;;;;;16.63;11.20;;;;;;;;;;5087768;28;20199;-59
2022/01/29 05:00:22;;;;;;;16.77;10.53;;;;;;;;;;5076410;28;20224;-59
2022/01/29 05:02:49;;;;;;;14.50;11.13;;;;;;;;;;5069535;28;20560;-59
2022/01/29 05:05:18;;;;;;;13.83;10.93;;;;;;;;;;5072257;28;20180;-59
2022/01/29 05:07:44;;;;;;;14.57;10.63;;;;;;;;;;5083051;28;20248;-59
2022/01/29 05:10:11;;;;;;;14.57;11.50;;;;;;;;;;5086244;28;20168;-59
2022/01/29 05:12:55;;;;;;;13.67;10.07;;;;;;;;;;5086446;28;20168;-59
2022/01/29 05:15:34;;;;;;;14.50;9.93;;;;;;;;;;5083368;28;20247;-59
2022/01/29 05:29:16;;;;;;;11.50;8.83;;;;;;;;;;5086953;28;20259;-59
2022/01/29 05:31:42;;;;;;;10.97;8.87;;;;;;;;;;5082036;28;20290;-59
2022/01/29 05:34:15;;;;;;;15.43;8.80;;;;;;;;;;5083014;28;20677;-59
2022/01/29 05:36:44;;;;;;;11.47;9.07;;;;;;;;;;5087386;28;20255;-58
2022/01/29 05:39:14;;;;;;;15.57;9.47;;;;;;;;;;5069013;28;20668;-59
2022/01/29 05:41:40;;;;;;;13.30;9.97;;;;;;;;;;5069081;28;20278;-59
2022/01/29 05:44:06;;;;;;;12.73;8.63;;;;;;;;;;5068598;28;20504;-58
2022/01/29 05:46:33;;;;;;;12.80;8.97;;;;;;;;;;5068943;28;20202;-58
2022/01/29 05:49:01;;;;;;;10.60;8.07;;;;;;;;;;5086295;28;20256;-58
2022/01/29 05:51:31;;;;;;;10.43;8.27;;;;;;;;;;5090673;28;20694;-59
2022/01/29 05:54:01;;;;;;;11.10;8.00;;;;;;;;;;5068958;28;20254;-59
2022/01/29 05:56:31;;;;;;;10.77;7.77;;;;;;;;;;5069580;28;20211;-59
2022/01/29 05:58:58;;;;;;;11.97;8.70;;;;;;;;;;5085706;28;20219;-58
2022/01/29 06:01:27;;;;;;;10.83;8.43;;;;;;;;;;5086500;28;20229;-59
2022/01/29 06:03:53;;;;;;;9.90;8.07;;;;;;;;;;5067617;28;20237;-58
2022/01/29 06:06:19;;;;;;;9.00;7.33;;;;;;;;;;5086698;28;20195;-58
2022/01/29 06:08:45;;;;;;;11.83;8.73;;;;;;;;;;5069058;28;20179;-58
2022/01/29 06:11:16;;;;;;;10.17;8.63;;;;;;;;;;5087217;28;20179;-59
2022/01/29 06:13:43;;;;;;;9.50;7.80;;;;;;;;;;5086588;28;20240;-59
2022/01/29 06:19:00;;;;;;;11.73;7.90;;;;;;;;;;5077403;28;20195;-58
2022/01/29 06:21:29;;;;;;;10.10;8.07;;;;;;;;;;5067644;28;20850;-59
2022/01/29 06:23:57;;;;;;;8.70;7.10;;;;;;;;;;5068729;28;20172;-59
2022/01/29 06:26:23;;;;;;;11.43;8.47;;;;;;;;;;5068431;28;20717;-59
2022/01/29 06:28:56;;;;;;;10.57;7.57;;;;;;;;;;5067486;28;20171;-59
2022/01/29 06:31:22;;;;;;;8.87;7.33;;;;;;;;;;5069022;28;20172;-58
2022/01/29 06:33:48;;;;;;;10.17;8.13;;;;;;;;;;5085976;28;20171;-58
2022/01/29 06:36:14;;;;;;;11.17;7.83;;;;;;;;;;5087415;28;20276;-58
2022/01/29 06:38:47;;;;;;;10.17;7.73;;;;;;;;;;5086552;28;20650;-58
2022/01/29 06:41:13;;;;;;;9.30;7.90;;;;;;;;;;5067628;28;20653;-58
2022/01/29 06:43:39;;;;;;;10.10;7.47;;;;;;;;;;5068845;28;20221;-59
2022/01/29 06:46:06;;;;;;;10.47;8.30;;;;;;;;;;5085681;28;20265;-58
2022/01/29 06:48:32;;;;;;;11.93;7.37;;;;;;;;;;5062496;28;20265;-59
2022/01/29 06:50:58;;;;;;;9.50;8.10;;;;;;;;;;5081761;28;20641;-59
2022/01/29 06:53:25;;;;;;;8.90;8.00;;;;;;;;;;5077965;28;20817;-58
2022/01/29 06:55:51;;;;;;;10.97;7.93;;;;;;;;;;5066001;28;20692;-59
2022/01/29 06:58:17;;;;;;;9.90;8.00;;;;;;;;;;5081811;28;20615;-58
2022/01/29 07:00:46;;;;;;;10.50;8.07;;;;;;;;;;5067801;28;20180;-59
2022/01/29 07:03:12;;;;;;;10.33;8.07;;;;;;;;;;5083392;28;20501;-59
2022/01/29 07:05:39;;;;;;;9.00;8.03;;;;;;;;;;5063017;28;20180;-59
2022/01/29 07:08:08;;;;;;;9.53;7.97;;;;;;;;;;5066530;28;20199;-58
2022/01/29 07:10:37;;;;;;;8.80;7.23;;;;;;;;;;5063270;28;20547;-58
2022/01/29 07:13:03;;;;;;;9.77;7.97;;;;;;;;;;5067044;28;20175;-58
2022/01/29 07:15:30;;;;;;;10.77;8.70;;;;;;;;;;5067145;28;20267;-58
2022/01/29 07:17:59;;;;;;;11.33;8.70;;;;;;;;;;5083865;28;20581;-59
2022/01/29 07:20:25;;;;;;;11.00;8.57;;;;;;;;;;5068892;28;20186;-58
2022/01/29 07:22:52;;;;;;;10.47;8.50;;;;;;;;;;5067053;28;20554;-58
2022/01/29 07:25:18;;;;;;;9.80;7.97;;;;;;;;;;5067146;28;20215;-58
2022/01/29 07:27:44;;;;;;;10.63;8.53;;;;;;;;;;5068583;28;20257;-58
2022/01/29 07:30:11;;;;;;;10.30;8.13;;;;;;;;;;5085287;28;20168;-58
2022/01/29 07:32:45;;;;;;;11.83;8.57;;;;;;;;;;5072668;28;20181;-58
2022/01/29 07:35:14;;;;;;;11.20;8.73;;;;;;;;;;5072201;28;20188;-59
2022/01/29 07:37:40;;;;;;;10.37;8.73;;;;;;;;;;5040806;28;20181;-59
2022/01/29 07:40:10;;;;;;;10.67;8.20;;;;;;;;;;5070211;28;20175;-59
2022/01/29 07:42:39;;;;;;;10.13;8.60;;;;;;;;;;5065627;28;20186;-58
2022/01/29 07:45:06;;;;;;;10.57;8.73;;;;;;;;;;5068376;28;20542;-59
2022/01/29 07:47:33;;;;;;;10.87;9.13;;;;;;;;;;5094607;28;20491;-59
2022/01/29 07:50:03;;;;;;;11.17;8.93;;;;;;;;;;5083855;28;20194;-58
2022/01/29 07:52:31;;;;;;;11.33;9.07;;;;;;;;;;5078204;28;20708;-58
2022/01/29 07:54:57;;;;;;;10.60;8.33;;;;;;;;;;5070741;28;20172;-59
2022/01/29 07:57:23;;;;;;;11.80;8.90;;;;;;;;;;5073347;28;20200;-59
2022/01/29 07:59:49;;;;;;;10.00;8.33;;;;;;;;;;5089958;28;20227;-58
2022/01/29 08:02:16;;;;;;;11.20;8.80;;;;;;;;;;5070760;28;20286;-58
2022/01/29 08:04:42;;;;;;;9.83;8.57;;;;;;;;;;5068733;28;20236;-57
2022/01/29 08:07:08;;;;;;;13.67;9.73;;;;;;;;;;5070324;28;20199;-58
2022/01/29 08:09:37;;;;;;;11.53;8.97;;;;;;;;;;5058763;28;20556;-59
2022/01/29 08:12:07;;;;;;;15.80;9.23;;;;;;;;;;5086785;28;20520;-58
2022/01/29 08:14:35;;;;;;;12.57;9.27;;;;;;;;;;5060390;28;20180;-59
2022/01/29 08:17:02;;;;;;;10.87;9.03;;;;;;;;;;5083043;28;20654;-59
2022/01/29 08:19:28;;;;;;;11.33;8.60;;;;;;;;;;5094024;28;20179;-58
2022/01/29 08:21:54;;;;;;;11.40;8.43;;;;;;;;;;5072904;28;20750;-59
2022/01/29 08:24:20;;;;;;;10.60;8.93;;;;;;;;;;5071937;28;20757;-58
2022/01/29 08:26:46;;;;;;;12.83;9.57;;;;;;;;;;5089593;28;20200;-59
2022/01/29 08:29:12;;;;;;;12.30;9.10;;;;;;;;;;5073869;28;20178;-58
2022/01/29 08:31:39;;;;;;;11.60;8.80;;;;;;;;;;5078403;28;20179;-59
2022/01/29 08:34:07;;;;;;;12.17;10.50;;;;;;;;;;5082045;28;20235;-59
2022/01/29 08:36:36;;;;;;;11.60;9.57;;;;;;;;;;5074007;28;20179;-58
2022/01/29 08:39:06;;;;;;;11.73;9.50;;;;;;;;;;5074101;28;20175;-58
2022/01/29 08:41:35;;;;;;;10.40;8.83;;;;;;;;;;5095142;28;20179;-58
2022/01/29 08:44:01;;;;;;;11.10;9.37;;;;;;;;;;5080943;28;20175;-58
2022/01/29 08:46:28;;;;;;;11.00;9.07;;;;;;;;;;5070768;28;20196;-59
2022/01/29 08:48:54;;;;;;;9.67;8.50;;;;;;;;;;5070709;28;20168;-58
2022/01/29 08:51:20;;;;;;;13.50;8.97;;;;;;;;;;5087169;28;20658;-59
2022/01/29 08:53:50;;;;;;;10.77;8.70;;;;;;;;;;5088215;28;20176;-58
2022/01/29 08:56:16;;;;;;;10.60;9.10;;;;;;;;;;5085735;28;20204;-58
2022/01/29 08:58:43;;;;;;;10.23;9.03;;;;;;;;;;5062726;28;20246;-57
2022/01/29 09:01:09;;;;;;;13.83;10.23;;;;;;;;;;5087143;28;20174;-58
2022/01/29 09:03:37;;;;;;;14.57;10.67;;;;;;;;;;5069065;28;20751;-58
2022/01/29 09:06:03;;;;;;;14.47;11.27;;;;;;;;;;5069638;28;20359;-57
2022/01/29 09:08:30;;;;;;;15.47;12.00;;;;;;;;;;5070276;28;20248;-57
2022/01/29 09:10:57;;;;;;;14.57;12.27;;;;;;;;;;5068174;28;20210;-56
2022/01/29 09:13:27;;;;;;;14.63;11.90;;;;;;;;;;5080737;28;20737;-57
2022/01/29 09:15:54;;;;;;;14.10;12.40;;;;;;;;;;5069354;28;20216;-56
2022/01/29 09:18:21;;;;;;;15.60;12.67;;;;;;;;;;5067108;28;20184;-56
2022/01/29 09:20:47;;;;;;;18.83;12.77;;;;;;;;;;5067555;28;20610;-56
2022/01/29 09:23:13;;;;;;;16.00;12.93;;;;;;;;;;5088802;28;20175;-56
2022/01/29 09:25:40;;;;;;;16.93;13.03;;;;;;;;;;5075661;28;20179;-56
2022/01/29 09:28:06;;;;;;;18.07;13.20;;;;;;;;;;5089922;28;20787;-56
2022/01/29 09:30:33;;;;;;;15.70;12.07;;;;;;;;;;5092404;28;20175;-56
2022/01/29 09:33:00;;;;;;;15.20;12.40;;;;;;;;;;5092558;28;20725;-56
2022/01/29 09:35:26;;;;;;;15.93;11.83;;;;;;;;;;5102852;28;20167;-56
2022/01/29 09:37:53;;;;;;;18.50;12.60;;;;;;;;;;5090663;28;20214;-56
2022/01/29 09:40:19;;;;;;;14.13;11.50;;;;;;;;;;5060507;28;20713;-56
2022/01/29 09:42:47;;;;;;;17.10;12.37;;;;;;;;;;5068190;28;20183;-55
2022/01/29 09:45:14;;;;;;;15.93;11.60;;;;;;;;;;5082627;28;20195;-55
2022/01/29 09:47:47;;;;;;;15.93;11.67;;;;;;;;;;5076421;28;20830;-56
2022/01/29 09:50:15;;;;;;;16.40;13.37;;;;;;;;;;5052785;28;20194;-56
2022/01/29 09:52:41;;;;;;;13.97;12.13;;;;;;;;;;5083577;28;20221;-56
2022/01/29 09:55:08;;;;;;;14.87;12.40;;;;;;;;;;5072968;28;20266;-55
2022/01/29 09:57:34;;;;;;;16.80;12.87;;;;;;;;;;5088229;28;20704;-55
2022/01/29 10:00:01;;;;;;;17.57;12.33;;;;;;;;;;5068326;28;20567;-55
2022/01/29 10:02:27;;;;;;;16.73;12.03;;;;;;;;;;5071553;28;20194;-55
2022/01/29 10:04:57;;;;;;;16.43;11.17;;;;;;;;;;5087726;28;20240;-56
2022/01/29 10:07:25;;;;;;;13.67;12.27;;;;;;;;;;5083800;28;20701;-56
2022/01/29 10:09:54;;;;;;;15.57;12.33;;;;;;;;;;5086233;28;20609;-56
2022/01/29 10:12:20;;;;;;;13.67;10.97;;;;;;;;;;5087164;28;20172;-55
2022/01/29 10:15:03;;;;;;;16.90;12.37;;;;;;;;;;5065713;28;20191;-55
2022/01/29 10:17:55;;;;;;;14.13;11.37;;;;;;;;;;5087015;28;20200;-56
2022/01/29 10:20:26;;;;;;;13.37;11.77;;;;;;;;;;5061069;28;20207;-56
2022/01/29 10:22:55;;;;;;;14.57;11.67;;;;;;;;;;5080098;28;20206;-57
2022/01/29 10:25:23;;;;;;;14.47;10.90;;;;;;;;;;5071448;28;20195;-56
2022/01/29 10:28:04;;;;;;;12.10;9.60;;;;;;;;;;5076829;28;20778;-56
2022/01/29 10:30:38;;;;;;;14.23;10.37;;;;;;;;;;5074553;28;20191;-56
2022/01/29 10:33:24;;;;;;;14.43;10.87;;;;;;;;;;5100912;28;20316;-57
2022/01/29 10:36:01;;;;;;;12.40;9.47;;;;;;;;;;5057103;28;20176;-57
2022/01/29 10:38:29;;;;;;;13.27;10.23;;;;;;;;;;5084798;28;20160;-55
2022/01/29 10:41:19;;;;;;;13.77;10.30;;;;;;;;;;5083052;28;20268;-56
2022/01/29 10:44:35;;;;;;;14.30;11.33;;;;;;;;;;5071123;28;20187;-56
2022/01/29 10:46:58;;;;;;;13.77;10.07;;;;;;;;;;5099892;28;20207;-55
2022/01/29 10:49:37;;;;;;;12.60;10.57;;;;;;;;;;5073904;28;20186;-55
2022/01/29 10:52:03;;;;;;;15.03;10.87;;;;;;;;;;5071461;28;20194;-56
2022/01/29 10:54:31;;;;;;;12.00;10.53;;;;;;;;;;5087078;28;20318;-55
2022/01/29 10:57:02;;;;;;;14.03;10.90;;;;;;;;;;5089445;28;20190;-56
2022/01/29 10:59:29;;;;;;;11.60;9.87;;;;;;;;;;5077495;28;20215;-55
2022/01/29 11:02:00;;;;;;;12.77;10.10;;;;;;;;;;5071895;28;20244;-55
2022/01/29 11:04:29;;;;;;;11.50;10.10;;;;;;;;;;5067387;28;20187;-55
2022/01/29 11:06:57;;;;;;;13.23;10.57;;;;;;;;;;5090776;28;20566;-55
2022/01/29 11:09:24;;;;;;;13.20;9.87;;;;;;;;;;5061802;28;20179;-54
2022/01/29 11:11:51;;;;;;;11.33;8.97;;;;;;;;;;5101432;28;20167;-54
2022/01/29 11:14:18;;;;;;;13.50;9.60;;;;;;;;;;5086201;28;20849;-55
2022/01/29 11:16:45;;;;;;;11.87;9.10;;;;;;;;;;5065838;28;20183;-55
2022/01/29 11:19:12;;;;;;;12.10;9.07;;;;;;;;;;5086178;28;20184;-55
2022/01/29 11:21:41;;;;;;;10.60;9.00;;;;;;;;;;5090706;28;20184;-55
2022/01/29 11:24:09;;;;;;;13.10;9.63;;;;;;;;;;5089176;28;20188;-55
2022/01/29 11:26:35;;;;;;;12.17;9.73;;;;;;;;;;5088853;28;20200;-55
2022/01/29 11:29:19;;;;;;;13.40;8.23;;;;;;;;;;5081321;28;20175;-55
2022/01/29 11:31:46;;;;;;;11.33;8.73;;;;;;;;;;5066805;28;20173;-54
2022/01/29 11:34:12;;;;;;;13.10;10.00;;;;;;;;;;5082807;28;20187;-55
2022/01/29 11:36:48;;;;;;;12.40;8.93;;;;;;;;;;5070246;28;20299;-55
2022/01/29 11:39:24;;;;;;;9.80;8.80;;;;;;;;;;5089640;28;20183;-56
2022/01/29 11:42:22;;;;;;;11.23;9.20;;;;;;;;;;5067325;28;20183;-56
2022/01/29 11:44:49;;;;;;;11.20;9.07;;;;;;;;;;5047812;28;20643;-56
2022/01/29 11:47:21;;;;;;;9.83;7.90;;;;;;;;;;5089806;28;20546;-55
2022/01/29 11:49:48;;;;;;;8.87;7.90;;;;;;;;;;5084420;28;20576;-54
2022/01/29 11:52:24;;;;;;;9.47;8.07;;;;;;;;;;5075779;28;20182;-55
2022/01/29 11:54:59;;;;;;;12.07;8.50;;;;;;;;;;5076784;28;20187;-54
2022/01/29 11:57:26;;;;;;;11.17;7.93;;;;;;;;;;5070130;28;20207;-57
2022/01/29 11:59:52;;;;;;;9.67;7.47;;;;;;;;;;5070810;28;20250;-55
2022/01/29 12:02:19;;;;;;;9.80;7.37;;;;;;;;;;5069268;28;20839;-55
2022/01/29 12:04:53;;;;;;;10.63;7.30;;;;;;;;;;5066282;28;20176;-56
2022/01/29 12:07:27;;;;;;;8.27;7.03;;;;;;;;;;5087164;28;20227;-55
2022/01/29 12:10:12;;;;;;;8.43;6.93;;;;;;;;;;5065502;28;20367;-55
2022/01/29 12:12:39;;;;;;;7.87;6.63;;;;;;;;;;5073539;28;20313;-55
2022/01/29 12:15:11;;;;;;;7.10;5.63;;;;;;;;;;5086674;28;20587;-55
2022/01/29 12:17:47;;;;;;;7.23;5.60;;;;;;;;;;5088193;28;20635;-55
2022/01/29 12:20:18;;;;;;;6.50;5.90;;;;;;;;;;5087584;28;20224;-55
2022/01/29 12:22:44;;;;;;;9.43;7.50;;;;;;;;;;5092349;28;20225;-55
2022/01/29 12:25:15;;;;;;;7.70;6.90;;;;;;;;;;5091886;28;20184;-55
2022/01/29 12:28:05;;;;;;;6.07;5.47;;;;;;;;;;5075911;28;20734;-55
2022/01/29 12:30:34;;;;;;;6.47;5.47;;;;;;;;;;5077458;28;20583;-55
2022/01/29 12:33:13;;;;;;;6.87;6.17;;;;;;;;;;5088240;28;20172;-57
2022/01/29 12:35:41;;;;;;;5.90;5.30;;;;;;;;;;5085994;28;20178;-57
2022/01/29 12:38:11;;;;;;;5.93;5.33;;;;;;;;;;5081495;28;20179;-57
2022/01/29 12:40:42;;;;;;;5.13;4.63;;;;;;;;;;5067607;28;20187;-57
2022/01/29 12:43:40;;;;;;;6.27;5.30;;;;;;;;;;5071140;28;20180;-58
2022/01/29 12:46:17;;;;;;;5.93;5.20;;;;;;;;;;5077490;28;20276;-57
2022/01/29 12:48:45;;;;;;;6.30;5.03;;;;;;;;;;5066720;28;20233;-56
2022/01/29 12:51:15;;;;;;;6.30;5.37;;;;;;;;;;5058185;28;20267;-57
2022/01/29 12:53:43;;;;;;;7.00;5.43;;;;;;;;;;5070266;28;20188;-57
2022/01/29 12:56:11;;;;;;;6.20;5.57;;;;;;;;;;5070261;28;20204;-57
2022/01/29 12:58:42;;;;;;;7.97;5.80;;;;;;;;;;5068923;28;20244;-57
2022/01/29 13:01:08;;;;;;;6.70;5.27;;;;;;;;;;5097840;28;20503;-57
2022/01/29 13:03:34;;;;;;;6.63;5.83;;;;;;;;;;5091720;28;20550;-57
2022/01/29 13:06:05;;;;;;;8.03;5.93;;;;;;;;;;5095399;28;20262;-56
2022/01/29 13:08:31;;;;;;;7.47;5.90;;;;;;;;;;5083530;28;20564;-56
2022/01/29 13:10:58;;;;;;;6.03;5.53;;;;;;;;;;5072007;28;20266;-57
2022/01/29 13:13:28;;;;;;;6.03;5.13;;;;;;;;;;5086041;28;20299;-57
2022/01/29 13:15:54;;;;;;;6.13;4.77;;;;;;;;;;5094251;28;20193;-57
2022/01/29 13:18:21;;;;;;;8.03;5.30;;;;;;;;;;5077625;28;20422;-57
2022/01/29 13:20:51;;;;;;;5.87;4.90;;;;;;;;;;5081516;28;20218;-56
2022/01/29 13:23:18;;;;;;;6.53;4.93;;;;;;;;;;5072617;28;20269;-57
2022/01/29 13:25:44;;;;;;;4.50;3.73;;;;;;;;;;5079315;28;20541;-57
2022/01/29 13:28:18;;;;;;;5.20;4.23;;;;;;;;;;5078298;28;20652;-56
2022/01/29 13:30:45;;;;;;;4.77;3.97;;;;;;;;;;5068610;28;20184;-57
2022/01/29 13:33:16;;;;;;;4.80;3.93;;;;;;;;;;5087326;28;20183;-57
2022/01/29 13:35:55;;;;;;;3.87;3.47;;;;;;;;;;5071528;28;20187;-57
2022/01/29 13:38:27;;;;;;;4.20;3.80;;;;;;;;;;5089161;28;20205;-57
2022/01/29 13:40:55;;;;;;;6.73;4.10;;;;;;;;;;5069705;28;20718;-55
2022/01/29 13:43:32;;;;;;;3.40;3.10;;;;;;;;;;5088017;28;20187;-55
2022/01/29 13:46:04;;;;;;;3.13;2.83;;;;;;;;;;5085861;28;20508;-55
2022/01/29 13:48:50;;;;;;;3.97;3.23;;;;;;;;;;5084652;28;20219;-55
2022/01/29 13:51:32;;;;;;;5.40;3.67;;;;;;;;;;5084551;28;20725;-55
2022/01/29 13:53:59;;;;;;;4.23;3.70;;;;;;;;;;5072813;28;20214;-56
2022/01/29 13:56:27;;;;;;;5.40;4.23;;;;;;;;;;5052767;28;20195;-57
2022/01/29 13:58:56;;;;;;;5.43;4.20;;;;;;;;;;5094354;28;20683;-55
2022/01/29 14:01:35;;;;;;;4.17;3.77;;;;;;;;;;5051155;28;20698;-55
2022/01/29 14:04:01;;;;;;;5.70;3.60;;;;;;;;;;5047729;28;20187;-55
2022/01/29 14:06:34;;;;;;;3.70;3.30;;;;;;;;;;5050356;28;20283;-55
2022/01/29 14:11:59;;;;;;;5.50;4.03;;;;;;;;;;5064876;28;20254;-55
2022/01/29 14:14:30;;;;;;;9.43;5.37;;;;;;;;;;5064727;28;20232;-55
2022/01/29 14:16:57;;;;;;;12.43;6.10;;;;;;;;;;5067767;28;20251;-55
2022/01/29 14:19:28;;;;;;;8.63;4.97;;;;;;;;;;5060077;28;20183;-55
2022/01/29 14:21:59;;;;;;;5.77;3.73;;;;;;;;;;5062116;28;20177;-55
2022/01/29 14:24:25;;;;;;;6.47;4.43;;;;;;;;;;5067456;28;20259;-55
2022/01/29 14:26:52;;;;;;;10.30;6.53;;;;;;;;;;5071544;28;20196;-55
2022/01/29 14:29:18;;;;;;;7.73;4.60;;;;;;;;;;5056647;28;20183;-55
2022/01/29 14:31:44;;;;;;;8.97;6.43;;;;;;;;;;5053926;28;20636;-55
2022/01/29 14:34:10;;;;;;;12.00;6.83;;;;;;;;;;5054108;28;20229;-55
2022/01/29 14:36:43;;;;;;;12.67;8.40;;;;;;;;;;5064103;28;20458;-55
2022/01/29 14:39:09;;;;;;;8.93;6.47;;;;;;;;;;5053803;28;20185;-55
2022/01/29 14:41:36;;;;;;;8.80;6.53;;;;;;;;;;5026544;28;20279;-55
2022/01/29 14:44:03;;;;;;;7.93;5.60;;;;;;;;;;5067185;28;20645;-55
2022/01/29 14:46:29;;;;;;;9.03;6.60;;;;;;;;;;5050569;28;20204;-55
2022/01/29 14:48:57;;;;;;;9.13;6.87;;;;;;;;;;5041529;28;22251;-55
2022/01/29 14:51:23;;;;;;;12.47;8.60;;;;;;;;;;5058553;28;20193;-55
2022/01/29 14:53:50;;;;;;;11.73;6.20;;;;;;;;;;5075029;28;20172;-55